Time;durP1;ratioP1;P1;durP2;ratioP2;P2;SDS_P1;SDS_P2;PMS_P1;PMS_P2;Temp;Humidity;BMP_temperature;BMP_pressure;BME280_temperature;BME280_humidity;BME280_pressure;Samples;Min_cycle;Max_cycle;Signal;HPM_P1;HPM_P2
2023/07/29 00:01:13;;;;;;;5.93;5.40;;;;;;;17.53;100.00;100672.06;5097689;28;20477;-49
2023/07/29 00:03:38;;;;;;;8.15;5.30;;;;;;;17.50;100.00;100658.97;5096215;28;20012;-51
2023/07/29 00:06:03;;;;;;;7.88;5.25;;;;;;;17.48;100.00;100656.44;5094294;28;20028;-48
2023/07/29 00:08:29;;;;;;;7.22;5.53;;;;;;;17.50;100.00;100653.59;5101837;28;20031;-50
2023/07/29 00:10:54;;;;;;;5.95;5.07;;;;;;;17.49;100.00;100665.34;5099502;28;20533;-50
2023/07/29 00:13:19;;;;;;;6.30;5.70;;;;;;;17.50;100.00;100661.66;5096225;28;20019;-48
2023/07/29 00:15:45;;;;;;;8.68;5.15;;;;;;;17.49;100.00;100668.88;5101002;28;20314;-50
2023/07/29 00:18:10;;;;;;;7.70;6.13;;;;;;;17.48;100.00;100661.00;5092456;28;20024;-49
2023/07/29 00:20:35;;;;;;;7.22;5.70;;;;;;;17.50;100.00;100659.81;5096853;28;20078;-48
2023/07/29 00:23:02;;;;;;;6.22;5.57;;;;;;;17.46;100.00;100658.47;5096062;28;20032;-48
2023/07/29 00:25:27;;;;;;;6.78;6.07;;;;;;;17.47;100.00;100659.28;5096972;28;20020;-48
2023/07/29 00:27:55;;;;;;;10.13;6.00;;;;;;;17.43;100.00;100655.28;5094886;28;20674;-48
2023/07/29 00:30:21;;;;;;;7.10;6.28;;;;;;;17.43;100.00;100661.47;5096000;28;20039;-48
2023/07/29 00:32:46;;;;;;;6.65;5.95;;;;;;;17.48;100.00;100655.63;5094325;28;20035;-48
2023/07/29 00:35:11;;;;;;;7.10;5.88;;;;;;;17.44;100.00;100649.75;5098359;28;20473;-48
2023/07/29 00:37:37;;;;;;;6.60;6.00;;;;;;;17.45;100.00;100640.66;5097407;28;20141;-48
2023/07/29 00:40:09;;;;;;;7.38;6.20;;;;;;;17.44;100.00;100641.69;5100842;28;20031;-48
2023/07/29 00:42:34;;;;;;;7.22;6.00;;;;;;;17.43;100.00;100640.00;5096154;28;20074;-48
2023/07/29 00:45:00;;;;;;;7.35;5.82;;;;;;;17.42;100.00;100637.47;5097908;28;20025;-48
2023/07/29 00:47:25;;;;;;;7.63;6.25;;;;;;;17.38;100.00;100631.63;5092801;28;20432;-48
2023/07/29 00:49:51;;;;;;;6.82;5.68;;;;;;;17.35;100.00;100635.50;5099146;28;20119;-49
2023/07/29 00:52:16;;;;;;;7.40;6.03;;;;;;;17.36;100.00;100628.25;5096208;28;20432;-48
2023/07/29 00:54:42;;;;;;;6.45;5.85;;;;;;;17.34;100.00;100622.22;5099772;28;20086;-48
2023/07/29 00:57:14;;;;;;;8.30;6.57;;;;;;;17.29;100.00;100617.34;5099224;28;20029;-48
2023/07/29 00:59:40;;;;;;;6.95;6.25;;;;;;;17.32;100.00;100626.91;5101368;28;20024;-48
2023/07/29 01:02:05;;;;;;;8.23;6.50;;;;;;;17.28;100.00;100628.25;5099497;28;20028;-48
2023/07/29 01:04:31;;;;;;;7.93;6.30;;;;;;;17.27;100.00;100627.44;5102446;28;20023;-48
2023/07/29 01:07:21;;;;;;;9.35;6.38;;;;;;;17.27;100.00;100619.38;5097152;28;20043;-48
2023/07/29 01:09:46;;;;;;;7.60;6.70;;;;;;;17.26;100.00;100627.59;5095686;28;20057;-48
2023/07/29 01:12:27;;;;;;;9.47;6.97;;;;;;;17.25;100.00;100628.59;5095867;28;20070;-48
2023/07/29 01:14:58;;;;;;;8.00;6.72;;;;;;;17.25;100.00;100631.28;5095957;28;20270;-49
2023/07/29 01:17:39;;;;;;;10.55;6.43;;;;;;;17.24;100.00;100626.94;5098407;28;20115;-47
2023/07/29 01:20:11;;;;;;;9.40;6.68;;;;;;;17.19;100.00;100628.25;5096556;28;20062;-48
2023/07/29 01:22:37;;;;;;;7.07;6.20;;;;;;;17.18;100.00;100625.72;5103376;28;20477;-49
2023/07/29 01:25:03;;;;;;;9.07;6.53;;;;;;;17.13;100.00;100634.28;5092711;28;20028;-49
2023/07/29 01:27:29;;;;;;;9.38;7.03;;;;;;;17.14;100.00;100637.81;5101721;28;20027;-48
2023/07/29 01:29:56;;;;;;;6.78;6.15;;;;;;;17.13;100.00;100634.28;5095157;28;20081;-48
2023/07/29 01:32:52;;;;;;;7.78;6.38;;;;;;;17.11;100.00;100633.59;5102874;28;20028;-48
2023/07/29 01:35:26;;;;;;;7.30;6.00;;;;;;;17.13;100.00;100636.13;5099191;28;20040;-48
2023/07/29 01:37:56;;;;;;;12.07;6.30;;;;;;;17.10;100.00;100639.13;5098321;28;20028;-48
2023/07/29 01:40:26;;;;;;;9.13;5.68;;;;;;;17.08;100.00;100638.47;5096895;28;20032;-48
2023/07/29 01:42:51;;;;;;;7.13;6.15;;;;;;;17.08;100.00;100650.03;5096146;28;20103;-48
2023/07/29 01:45:17;;;;;;;8.43;5.72;;;;;;;17.04;100.00;100643.31;5102760;28;20050;-48
2023/07/29 01:47:42;;;;;;;6.65;5.50;;;;;;;17.04;100.00;100647.84;5100268;28;20053;-48
2023/07/29 01:50:08;;;;;;;7.32;5.40;;;;;;;17.00;100.00;100642.81;5101369;28;20425;-49
2023/07/29 01:52:33;;;;;;;6.07;5.47;;;;;;;16.98;100.00;100636.75;5097743;28;20111;-47
2023/07/29 01:54:59;;;;;;;7.60;5.45;;;;;;;16.97;100.00;100648.50;5100143;28;20111;-48
2023/07/29 01:57:24;;;;;;;7.30;5.38;;;;;;;16.97;100.00;100650.34;5095959;28;20024;-48
2023/07/29 01:59:49;;;;;;;7.28;5.00;;;;;;;16.96;100.00;100649.50;5097025;28;20384;-49
2023/07/29 02:02:15;;;;;;;6.28;5.22;;;;;;;16.96;100.00;100643.31;5097842;28;20036;-48
2023/07/29 02:04:40;;;;;;;6.85;4.82;;;;;;;16.95;100.00;100641.63;5097444;28;20016;-48
2023/07/29 02:07:05;;;;;;;7.20;4.72;;;;;;;16.94;100.00;100648.00;5096817;28;20394;-48
2023/07/29 02:09:31;;;;;;;6.82;4.85;;;;;;;16.95;100.00;100642.47;5099479;28;20028;-47
2023/07/29 02:11:57;;;;;;;7.97;4.55;;;;;;;16.93;100.00;100641.78;5097897;28;20109;-47
2023/07/29 02:14:23;;;;;;;5.80;4.50;;;;;;;16.91;100.00;100634.91;5094622;28;20370;-47
2023/07/29 02:16:49;;;;;;;5.68;4.53;;;;;;;16.90;100.00;100634.06;5084800;28;20118;-48
2023/07/29 02:19:14;;;;;;;4.00;3.60;;;;;;;16.88;100.00;100630.69;5096786;28;20035;-47
2023/07/29 02:21:39;;;;;;;4.40;4.00;;;;;;;16.89;100.00;100628.88;5099005;28;20028;-48
2023/07/29 02:24:05;;;;;;;4.38;3.90;;;;;;;16.89;100.00;100623.53;5081522;28;20112;-48
2023/07/29 02:26:30;;;;;;;4.00;3.63;;;;;;;16.89;100.00;100631.56;5096899;28;20020;-48
2023/07/29 02:28:55;;;;;;;4.90;3.87;;;;;;;16.86;100.00;100624.66;5101568;28;20496;-48
2023/07/29 02:31:23;;;;;;;4.25;3.50;;;;;;;16.83;100.00;100630.31;5092575;28;20274;-48
2023/07/29 02:33:49;;;;;;;4.80;3.85;;;;;;;16.83;100.00;100630.31;5098347;28;20433;-48
2023/07/29 02:36:14;;;;;;;4.45;3.47;;;;;;;16.81;100.00;100635.03;5096401;28;20035;-47
2023/07/29 02:38:40;;;;;;;5.32;3.90;;;;;;;16.79;100.00;100631.66;5097834;28;20123;-48
2023/07/29 02:41:06;;;;;;;5.10;3.80;;;;;;;16.78;100.00;100625.44;5097650;28;20366;-48
2023/07/29 02:43:31;;;;;;;4.97;3.67;;;;;;;16.77;100.00;100626.47;5095567;28;20047;-48
2023/07/29 02:45:56;;;;;;;4.55;3.75;;;;;;;16.75;100.00;100625.81;5097427;28;20039;-47
2023/07/29 02:48:24;;;;;;;6.65;3.90;;;;;;;16.69;100.00;100623.75;5094186;28;20111;-47
2023/07/29 02:50:49;;;;;;;4.40;3.58;;;;;;;16.69;100.00;100615.72;5098243;28;20118;-48
2023/07/29 02:53:15;;;;;;;4.05;3.75;;;;;;;16.68;100.00;100621.25;5098682;28;20462;-48
2023/07/29 02:55:40;;;;;;;5.22;3.63;;;;;;;16.65;100.00;100619.72;5100343;28;20034;-47
2023/07/29 02:58:06;;;;;;;5.25;3.90;;;;;;;16.63;100.00;100616.34;5100170;28;20035;-48
2023/07/29 03:00:32;;;;;;;4.95;4.10;;;;;;;16.59;100.00;100620.38;5095733;28;20105;-48
2023/07/29 03:02:58;;;;;;;4.88;4.38;;;;;;;16.61;100.00;100613.84;5090987;28;20155;-48
2023/07/29 03:05:23;;;;;;;5.00;4.50;;;;;;;16.58;100.00;100613.31;5095434;28;20055;-48
2023/07/29 03:07:49;;;;;;;5.95;4.13;;;;;;;16.58;100.00;100624.06;5097379;28;20070;-47
2023/07/29 03:10:14;;;;;;;5.65;4.70;;;;;;;16.54;100.00;100617.34;5096339;28;20012;-48
2023/07/29 03:12:40;;;;;;;5.75;4.50;;;;;;;16.54;100.00;100612.00;5096283;28;20028;-48
2023/07/29 03:15:06;;;;;;;4.97;4.50;;;;;;;16.55;100.00;100613.66;5099366;28;20059;-48
2023/07/29 03:17:31;;;;;;;6.45;5.05;;;;;;;16.46;100.00;100616.28;5102002;28;20103;-48
2023/07/29 03:19:56;;;;;;;6.10;4.45;;;;;;;16.46;100.00;100626.19;5098161;28;20461;-47
2023/07/29 03:22:22;;;;;;;9.10;4.88;;;;;;;16.44;100.00;100625.53;5094673;28;20020;-49
2023/07/29 03:24:47;;;;;;;5.85;4.75;;;;;;;16.42;100.00;100630.19;5096508;28;20556;-48
2023/07/29 03:27:15;;;;;;;9.07;4.65;;;;;;;16.42;100.00;100636.41;5098541;28;20030;-48
2023/07/29 03:29:40;;;;;;;7.28;4.85;;;;;;;16.38;100.00;100640.38;5094181;28;20035;-47
2023/07/29 03:32:06;;;;;;;4.95;4.25;;;;;;;16.35;100.00;100626.47;5098319;28;20494;-49
2023/07/29 03:34:31;;;;;;;7.85;4.78;;;;;;;16.35;100.00;100623.78;5094889;28;20036;-48
2023/07/29 03:36:57;;;;;;;5.63;4.50;;;;;;;16.33;100.00;100631.16;5097700;28;20461;-48
2023/07/29 03:39:22;;;;;;;7.65;4.32;;;;;;;16.31;100.00;100633.16;5096787;28;20095;-48
2023/07/29 03:41:48;;;;;;;5.15;4.43;;;;;;;16.27;100.00;100635.34;5091070;28;20345;-48
2023/07/29 03:44:13;;;;;;;5.65;4.35;;;;;;;16.26;100.00;100631.78;5096370;28;20476;-48
2023/07/29 03:46:39;;;;;;;5.57;4.68;;;;;;;16.25;100.00;100629.25;5093299;28;20024;-48
2023/07/29 03:49:04;;;;;;;5.47;4.10;;;;;;;16.23;100.00;100636.63;5096899;28;20027;-49
2023/07/29 03:51:29;;;;;;;6.68;4.60;;;;;;;16.20;100.00;100628.91;5098413;28;20047;-48
2023/07/29 03:53:54;;;;;;;5.13;4.53;;;;;;;16.19;100.00;100616.53;5097390;28;20518;-48
2023/07/29 03:56:20;;;;;;;5.88;4.95;;;;;;;16.19;100.00;100608.50;5097577;28;20016;-48
2023/07/29 03:58:47;;;;;;;8.82;4.82;;;;;;;16.17;100.00;100591.72;5096746;28;20017;-49
2023/07/29 04:01:13;;;;;;;5.20;4.70;;;;;;;16.13;100.00;100585.00;5097082;28;20021;-49
2023/07/29 04:03:38;;;;;;;6.68;5.28;;;;;;;16.12;100.00;100586.00;5094929;28;20382;-48
2023/07/29 04:06:04;;;;;;;7.25;4.93;;;;;;;16.11;100.00;100587.84;5098058;28;20050;-48
2023/07/29 04:08:29;;;;;;;6.93;4.47;;;;;;;16.13;100.00;100587.69;5095033;28;20067;-49
2023/07/29 04:10:54;;;;;;;7.72;4.78;;;;;;;16.13;100.00;100574.28;5096691;28;20085;-50
2023/07/29 04:13:20;;;;;;;6.18;4.72;;;;;;;16.09;100.00;100576.44;5095603;28;20055;-48
2023/07/29 04:15:45;;;;;;;7.20;5.13;;;;;;;16.06;100.00;100587.47;5096073;28;20127;-49
2023/07/29 04:18:11;;;;;;;7.25;4.50;;;;;;;16.07;100.00;100594.50;5092901;28;20024;-48
2023/07/29 04:20:36;;;;;;;6.18;4.43;;;;;;;16.07;100.00;100610.56;5091549;28;20039;-49
2023/07/29 04:23:01;;;;;;;4.40;4.00;;;;;;;16.05;100.00;100623.31;5097662;28;20063;-49
2023/07/29 04:25:27;;;;;;;5.28;4.35;;;;;;;16.03;100.00;100626.13;5095506;28;20117;-48
2023/07/29 04:27:53;;;;;;;6.28;4.38;;;;;;;16.03;100.00;100634.16;5103887;28;20061;-50
2023/07/29 04:30:18;;;;;;;6.25;3.95;;;;;;;16.02;100.00;100635.19;5095302;28;20028;-48
2023/07/29 04:32:44;;;;;;;4.68;4.10;;;;;;;16.01;100.00;100632.66;5101705;28;20030;-49
2023/07/29 04:35:10;;;;;;;4.80;4.15;;;;;;;16.00;100.00;100626.44;5097718;28;20022;-47
2023/07/29 04:37:35;;;;;;;6.00;3.78;;;;;;;16.00;100.00;100623.78;5103868;28;20024;-48
2023/07/29 04:40:00;;;;;;;7.00;4.32;;;;;;;16.00;100.00;100628.28;5099288;28;20051;-50
2023/07/29 04:42:26;;;;;;;6.05;3.40;;;;;;;16.02;100.00;100642.38;5103133;28;20079;-48
2023/07/29 04:44:51;;;;;;;4.50;3.92;;;;;;;16.02;100.00;100645.03;5097703;28;20039;-48
2023/07/29 04:47:16;;;;;;;6.07;3.78;;;;;;;16.03;100.00;100646.72;5101103;28;20505;-49
2023/07/29 04:49:42;;;;;;;6.70;3.83;;;;;;;16.03;100.00;100636.03;5097950;27;20073;-48
2023/07/29 04:52:07;;;;;;;4.10;3.70;;;;;;;16.04;100.00;100638.53;5102521;28;20107;-48
2023/07/29 04:54:32;;;;;;;4.80;3.75;;;;;;;16.05;100.00;100645.59;5096325;28;20393;-48
2023/07/29 04:56:58;;;;;;;5.75;3.55;;;;;;;16.04;100.00;100643.06;5098715;28;20473;-48
2023/07/29 04:59:23;;;;;;;4.82;3.42;;;;;;;16.06;100.00;100646.44;5094505;28;20036;-48
2023/07/29 05:01:49;;;;;;;4.80;3.40;;;;;;;16.05;100.00;100650.09;5099644;28;20118;-48
2023/07/29 05:04:14;;;;;;;4.75;3.70;;;;;;;16.05;100.00;100645.59;5098198;28;20028;-48
2023/07/29 05:06:39;;;;;;;4.55;3.25;;;;;;;16.08;100.00;100653.28;5102541;28;20031;-48
2023/07/29 05:09:15;;;;;;;3.60;3.27;;;;;;;16.08;100.00;100655.97;5098740;28;20036;-49
2023/07/29 05:11:41;;;;;;;5.43;3.40;;;;;;;16.08;100.00;100657.81;5103362;28;20257;-49
2023/07/29 05:14:06;;;;;;;4.72;3.42;;;;;;;16.11;100.00;100665.53;5096823;28;20484;-50
2023/07/29 05:16:32;;;;;;;6.35;3.40;;;;;;;16.15;100.00;100668.75;5098563;28;20386;-49
2023/07/29 05:18:57;;;;;;;5.50;3.28;;;;;;;16.15;100.00;100671.41;5098081;28;20430;-48
2023/07/29 05:21:23;;;;;;;4.30;3.00;;;;;;;16.18;100.00;100671.94;5098805;28;20457;-48
2023/07/29 05:23:48;;;;;;;3.33;3.03;;;;;;;16.19;100.00;100657.56;5089835;28;20139;-48
2023/07/29 05:26:13;;;;;;;5.00;3.10;;;;;;;16.19;100.00;100651.38;5095604;28;20032;-48
2023/07/29 05:28:38;;;;;;;3.90;3.42;;;;;;;16.20;100.00;100656.53;5095132;28;20469;-48
2023/07/29 05:31:04;;;;;;;3.38;2.90;;;;;;;16.21;100.00;100655.53;5102721;28;20657;-48
2023/07/29 05:33:29;;;;;;;3.30;3.00;;;;;;;16.24;100.00;100654.41;5098154;28;20066;-49
2023/07/29 05:35:54;;;;;;;3.50;3.15;;;;;;;16.25;100.00;100656.06;5098982;28;20023;-47
2023/07/29 05:38:20;;;;;;;3.50;3.15;;;;;;;16.28;100.00;100661.13;5095885;28;20411;-49
2023/07/29 05:40:48;;;;;;;3.88;3.13;;;;;;;16.27;100.00;100654.91;5099644;28;20052;-48
2023/07/29 05:43:14;;;;;;;3.22;2.92;;;;;;;16.34;100.00;100652.44;5096291;27;20020;-47
2023/07/29 05:45:39;;;;;;;3.72;2.92;;;;;;;16.39;100.00;100652.81;5098046;28;20580;-48
2023/07/29 05:48:05;;;;;;;5.13;3.13;;;;;;;16.50;100.00;100667.75;5098090;28;20099;-48
2023/07/29 05:50:30;;;;;;;6.03;3.60;;;;;;;16.65;100.00;100662.63;5101384;28;20045;-48
2023/07/29 05:52:55;;;;;;;5.65;3.72;;;;;;;16.77;100.00;100666.69;5093363;28;20229;-49
2023/07/29 05:55:21;;;;;;;3.97;3.45;;;;;;;16.90;100.00;100660.88;5092244;28;20047;-49
2023/07/29 05:57:46;;;;;;;4.60;3.55;;;;;;;17.02;100.00;100670.31;5096863;28;20465;-47
2023/07/29 06:00:12;;;;;;;4.00;3.70;;;;;;;17.10;100.00;100669.50;5099911;28;20118;-48
2023/07/29 06:02:37;;;;;;;3.90;3.60;;;;;;;17.18;100.00;100658.75;5095606;28;20020;-49
2023/07/29 06:05:03;;;;;;;3.83;3.20;;;;;;;17.23;100.00;100660.13;5097718;28;20511;-48
2023/07/29 06:07:30;;;;;;;3.85;3.40;;;;;;;17.31;100.00;100663.66;5095143;28;20036;-48
2023/07/29 06:09:56;;;;;;;3.83;3.10;;;;;;;17.44;100.00;100665.03;5095937;28;20031;-48
2023/07/29 06:12:21;;;;;;;3.67;3.33;;;;;;;17.51;100.00;100660.66;5087963;28;20032;-48
2023/07/29 06:14:46;;;;;;;7.22;3.38;;;;;;;17.59;100.00;100671.41;5091648;28;20062;-49
2023/07/29 06:17:12;;;;;;;3.90;3.45;;;;;;;17.77;100.00;100665.84;5091309;28;20032;-49
2023/07/29 06:19:38;;;;;;;4.05;3.13;;;;;;;17.92;100.00;100666.03;5096638;28;20795;-48
2023/07/29 06:22:05;;;;;;;4.97;2.83;;;;;;;18.04;100.00;100661.97;5095658;28;20051;-49
2023/07/29 06:24:30;;;;;;;3.30;3.00;;;;;;;18.07;100.00;100645.53;5090583;28;20191;-50
2023/07/29 06:26:55;;;;;;;4.95;3.13;;;;;;;18.10;100.00;100650.56;5095283;28;20249;-48
2023/07/29 06:29:21;;;;;;;4.32;3.45;;;;;;;18.07;99.38;100648.22;5090173;28;20035;-48
2023/07/29 06:31:46;;;;;;;6.45;3.60;;;;;;;18.17;99.91;100653.41;5097355;28;20095;-49
2023/07/29 06:34:11;;;;;;;4.93;2.97;;;;;;;18.22;99.68;100656.41;5100401;28;20035;-51
2023/07/29 06:36:37;;;;;;;5.13;3.10;;;;;;;18.33;100.00;100657.88;5093343;28;20032;-49
2023/07/29 06:39:02;;;;;;;3.63;3.03;;;;;;;18.46;98.48;100652.78;5092530;28;20024;-50
2023/07/29 06:41:27;;;;;;;3.35;2.60;;;;;;;18.70;99.93;100648.31;5100097;28;20055;-48
2023/07/29 06:43:52;;;;;;;4.03;3.40;;;;;;;18.81;97.52;100656.00;5094019;28;20038;-50
2023/07/29 06:46:18;;;;;;;6.50;3.70;;;;;;;18.94;96.77;100655.44;5097827;28;20369;-48
2023/07/29 06:48:43;;;;;;;3.13;2.80;;;;;;;19.09;96.63;100663.59;5090942;28;20028;-48
2023/07/29 06:51:08;;;;;;;3.42;2.92;;;;;;;19.36;94.98;100669.47;5098579;28;20421;-48
2023/07/29 06:53:34;;;;;;;3.70;2.78;;;;;;;19.51;93.59;100672.22;5092447;28;20035;-48
2023/07/29 06:55:59;;;;;;;2.63;2.40;;;;;;;19.64;94.14;100674.34;5092351;28;20024;-48
2023/07/29 06:58:25;;;;;;;2.83;2.53;;;;;;;19.78;91.95;100681.63;5094854;28;20044;-51
2023/07/29 07:00:50;;;;;;;3.13;2.20;;;;;;;20.01;90.80;100678.06;5098451;28;20039;-51
2023/07/29 07:03:15;;;;;;;3.90;2.50;;;;;;;20.15;90.47;100679.91;5094032;28;20020;-47
2023/07/29 07:05:41;;;;;;;3.22;2.30;;;;;;;20.15;89.91;100680.78;5095813;28;20427;-49
2023/07/29 07:08:06;;;;;;;2.90;2.50;;;;;;;20.12;88.96;100670.34;5095335;28;20027;-48
2023/07/29 07:10:33;;;;;;;3.33;2.50;;;;;;;20.10;87.74;100685.88;5091791;28;20491;-50
2023/07/29 07:12:58;;;;;;;3.38;2.20;;;;;;;20.01;88.97;100673.50;5100264;28;20277;-48
2023/07/29 07:15:24;;;;;;;2.20;2.10;;;;;;;19.99;88.67;100677.41;5100210;28;20023;-48
2023/07/29 07:17:50;;;;;;;3.28;2.13;;;;;;;20.01;88.71;100684.28;5099276;28;20077;-47
2023/07/29 07:20:16;;;;;;;3.53;2.20;;;;;;;20.00;87.97;100687.16;5098088;28;20056;-47
2023/07/29 07:22:41;;;;;;;3.92;2.20;;;;;;;20.00;87.38;100682.63;5093624;28;20146;-47
2023/07/29 07:25:07;;;;;;;2.97;2.50;;;;;;;20.02;90.21;100687.81;5090765;28;20044;-47
2023/07/29 07:27:32;;;;;;;3.92;2.15;;;;;;;20.10;89.41;100693.97;5100128;28;20102;-47
2023/07/29 07:29:57;;;;;;;3.42;2.20;;;;;;;20.09;89.07;100697.69;5095006;28;20028;-50
2023/07/29 07:32:23;;;;;;;2.42;2.17;;;;;;;20.10;86.60;100693.13;5089810;28;20058;-49
2023/07/29 07:34:48;;;;;;;4.80;2.15;;;;;;;20.14;86.33;100692.56;5093606;28;20028;-50
2023/07/29 07:37:13;;;;;;;1.85;1.70;;;;;;;20.18;87.76;100695.72;5095565;28;20386;-49
2023/07/29 07:39:39;;;;;;;4.32;2.08;;;;;;;20.27;87.29;100710.00;5095428;28;20261;-49
2023/07/29 07:42:04;;;;;;;2.92;1.90;;;;;;;20.30;86.77;100709.59;5090323;28;20059;-51
2023/07/29 07:44:30;;;;;;;2.15;1.95;;;;;;;20.47;87.57;100707.59;5092780;28;20028;-49
2023/07/29 07:46:55;;;;;;;2.17;1.85;;;;;;;20.71;86.58;100706.47;5089152;28;20059;-49
2023/07/29 07:49:22;;;;;;;2.92;1.98;;;;;;;20.97;85.07;100710.56;5098876;28;20020;-48
2023/07/29 07:51:47;;;;;;;1.80;1.70;;;;;;;21.10;85.88;100716.09;5093745;28;20418;-50
2023/07/29 07:54:12;;;;;;;3.55;2.00;;;;;;;21.26;84.72;100713.16;5093332;28;20062;-49
2023/07/29 07:56:37;;;;;;;4.00;2.10;;;;;;;21.41;80.64;100717.69;5084846;28;20139;-49
2023/07/29 07:59:03;;;;;;;2.33;2.07;;;;;;;21.51;78.76;100706.59;5098049;28;20020;-49
2023/07/29 08:01:34;;;;;;;1.70;1.60;;;;;;;21.50;77.66;100711.16;5094416;28;20296;-49
2023/07/29 08:03:59;;;;;;;1.65;1.55;;;;;;;21.58;78.86;100704.78;5100296;28;20015;-49
2023/07/29 08:06:24;;;;;;;3.45;1.70;;;;;;;21.62;79.26;100706.06;5103121;28;20374;-49
2023/07/29 08:08:50;;;;;;;3.13;1.70;;;;;;;21.67;79.18;100700.09;5102390;28;20115;-50
2023/07/29 08:11:15;;;;;;;1.65;1.40;;;;;;;21.80;78.57;100706.44;5094867;28;20107;-49
2023/07/29 08:13:40;;;;;;;3.58;1.60;;;;;;;21.87;76.31;100719.19;5102475;28;20157;-51
2023/07/29 08:16:06;;;;;;;1.80;1.70;;;;;;;21.92;77.27;100714.03;5105622;28;20487;-51
2023/07/29 08:18:31;;;;;;;1.58;1.48;;;;;;;21.80;76.09;100713.72;5101495;28;20069;-49
2023/07/29 08:20:58;;;;;;;2.08;1.33;;;;;;;21.72;77.45;100720.09;5102516;28;20019;-49
2023/07/29 08:23:25;;;;;;;2.25;1.50;;;;;;;21.73;78.31;100715.50;5101492;28;20473;-50
2023/07/29 08:25:56;;;;;;;2.22;1.70;;;;;;;21.67;77.00;100722.53;5101807;28;20031;-50
2023/07/29 08:28:22;;;;;;;3.53;1.70;;;;;;;21.56;76.64;100715.78;5098079;28;20028;-49
2023/07/29 08:30:47;;;;;;;3.05;1.77;;;;;;;21.52;77.57;100713.69;5098243;28;20035;-49
2023/07/29 08:33:12;;;;;;;3.08;1.50;;;;;;;21.52;78.17;100714.50;5098882;28;20020;-51
2023/07/29 08:35:38;;;;;;;3.58;1.80;;;;;;;21.52;78.28;100711.81;5093377;28;20080;-49
2023/07/29 08:38:04;;;;;;;1.90;1.77;;;;;;;21.44;76.93;100718.13;5095395;28;20043;-50
2023/07/29 08:40:30;;;;;;;1.88;1.40;;;;;;;21.33;76.88;100715.91;5094951;28;20119;-49
2023/07/29 08:42:58;;;;;;;1.88;1.77;;;;;;;21.26;76.13;100699.63;5091475;28;20024;-49
2023/07/29 08:45:24;;;;;;;1.40;1.30;;;;;;;21.46;77.30;100704.41;5099209;28;20028;-49
2023/07/29 08:47:54;;;;;;;2.83;1.55;;;;;;;21.91;78.26;100702.34;5098346;28;20020;-51
2023/07/29 08:50:20;;;;;;;3.88;1.85;;;;;;;22.37;76.77;100701.06;5094922;28;20028;-51
2023/07/29 08:52:46;;;;;;;2.65;1.40;;;;;;;22.65;74.57;100692.88;5098512;28;20019;-50
2023/07/29 08:55:11;;;;;;;2.63;1.70;;;;;;;22.94;73.42;100700.91;5091508;28;20064;-50
2023/07/29 08:57:37;;;;;;;1.70;1.42;;;;;;;23.02;73.10;100698.03;5096951;28;20056;-51
2023/07/29 09:00:03;;;;;;;1.73;1.23;;;;;;;22.99;70.71;100701.16;5100539;28;20028;-51
2023/07/29 09:02:29;;;;;;;1.98;1.30;;;;;;;23.01;71.90;100696.34;5081317;28;20033;-53
2023/07/29 09:04:54;;;;;;;1.45;1.23;;;;;;;22.98;71.43;100708.44;5082446;28;20032;-50
2023/07/29 09:07:20;;;;;;;2.83;1.50;;;;;;;23.05;72.36;100711.19;5099585;28;20027;-48
2023/07/29 09:09:46;;;;;;;1.92;1.20;;;;;;;23.00;70.40;100713.63;5097593;28;20115;-50
2023/07/29 09:12:11;;;;;;;1.83;1.30;;;;;;;22.98;69.43;100705.75;5094146;28;20118;-50
2023/07/29 09:14:37;;;;;;;2.00;1.25;;;;;;;23.04;69.08;100699.47;5096395;28;20290;-51
2023/07/29 09:17:03;;;;;;;4.03;1.10;;;;;;;23.17;71.69;100700.63;5098920;28;20023;-49
2023/07/29 09:19:32;;;;;;;1.23;1.20;;;;;;;23.29;70.11;100693.53;5100785;28;20492;-47
2023/07/29 09:21:58;;;;;;;2.22;1.48;;;;;;;23.40;69.53;100695.66;5099266;28;20458;-47
2023/07/29 09:24:23;;;;;;;1.80;1.17;;;;;;;23.64;69.17;100685.25;5099621;28;20108;-47
2023/07/29 09:26:50;;;;;;;4.65;1.30;;;;;;;23.89;66.79;100680.06;5092606;28;20052;-47
2023/07/29 09:29:15;;;;;;;1.60;1.50;;;;;;;24.29;67.84;100687.31;5096899;28;20051;-46
2023/07/29 09:31:41;;;;;;;3.85;1.55;;;;;;;24.60;67.44;100683.06;5095846;27;20043;-47
2023/07/29 09:34:06;;;;;;;1.10;1.00;;;;;;;24.71;67.01;100685.13;5093803;28;20047;-47
2023/07/29 09:36:33;;;;;;;1.35;1.20;;;;;;;24.74;64.63;100682.00;5091616;28;20024;-47
2023/07/29 09:38:58;;;;;;;2.17;1.40;;;;;;;24.73;64.38;100694.75;5090026;28;20115;-46
2023/07/29 09:41:28;;;;;;;2.17;1.50;;;;;;;24.76;64.65;100679.88;5100603;28;20127;-46
2023/07/29 09:44:02;;;;;;;1.20;1.10;;;;;;;24.66;64.38;100685.75;5097337;28;20032;-46
2023/07/29 09:46:37;;;;;;;1.33;1.33;;;;;;;24.61;65.72;100688.28;5097129;28;20028;-46
2023/07/29 09:49:04;;;;;;;2.55;1.20;;;;;;;24.45;63.73;100696.88;5096292;28;20381;-47
2023/07/29 09:51:30;;;;;;;4.38;1.38;;;;;;;24.37;64.22;100696.06;5101929;28;20035;-47
2023/07/29 09:53:55;;;;;;;1.27;1.20;;;;;;;24.28;65.12;100694.63;5098536;28;20027;-47
2023/07/29 09:56:25;;;;;;;1.90;1.27;;;;;;;23.99;65.83;100691.31;5096907;28;20027;-47
2023/07/29 09:58:51;;;;;;;2.25;1.23;;;;;;;24.03;64.74;100702.59;5093644;28;20036;-47
2023/07/29 10:01:17;;;;;;;1.37;1.03;;;;;;;23.81;65.23;100700.09;5095708;28;20034;-47
2023/07/29 10:03:44;;;;;;;2.83;1.20;;;;;;;23.75;67.38;100702.78;5096900;28;20278;-48
2023/07/29 10:06:10;;;;;;;2.28;1.10;;;;;;;23.79;67.61;100694.00;5094818;28;20427;-47
2023/07/29 10:08:39;;;;;;;1.77;1.23;;;;;;;23.97;65.89;100689.88;5097123;28;20111;-47
2023/07/29 10:11:05;;;;;;;;;;;;;;;24.32;69.44;100679.59;5101814;28;20028;-47
2023/07/29 10:13:31;;;;;;;3.63;1.50;;;;;;;24.65;65.91;100688.72;5098108;28;19981;-47
2023/07/29 10:15:56;;;;;;;1.50;1.40;;;;;;;24.89;65.30;100687.97;5097226;28;20115;-46
2023/07/29 10:18:23;;;;;;;1.95;1.20;;;;;;;25.07;64.69;100683.72;5093945;28;20077;-46
2023/07/29 10:20:51;;;;;;;2.00;1.45;;;;;;;25.22;62.69;100683.41;5094244;28;20040;-47
2023/07/29 10:23:18;;;;;;;2.00;1.80;;;;;;;25.39;61.42;100686.47;5095749;28;20083;-47
2023/07/29 10:25:49;;;;;;;3.05;1.50;;;;;;;25.43;61.89;100676.81;5096500;28;20073;-47
2023/07/29 10:28:18;;;;;;;1.45;1.30;;;;;;;25.73;61.65;100673.44;5098219;28;20036;-47
2023/07/29 10:30:44;;;;;;;;;;;;;;;26.04;64.28;100684.28;5098750;28;20465;-49
2023/07/29 10:33:10;;;;;;;2.38;1.38;;;;;;;25.99;59.53;100683.31;5098629;28;19961;-47
2023/07/29 10:35:37;;;;;;;2.38;1.20;;;;;;;26.12;58.20;100677.72;5087381;28;20024;-47
2023/07/29 10:38:04;;;;;;;2.22;1.23;;;;;;;26.38;60.16;100667.63;5096588;28;20023;-48
2023/07/29 10:40:47;;;;;;;1.42;1.30;;;;;;;26.52;61.13;100668.31;5097469;28;20103;-47
2023/07/29 10:43:19;;;;;;;2.10;1.35;;;;;;;26.64;58.67;100658.31;5095331;28;20027;-47
2023/07/29 10:45:44;;;;;;;2.08;1.45;;;;;;;26.57;57.77;100652.09;5098341;28;20031;-47
2023/07/29 10:48:33;;;;;;;1.95;1.52;;;;;;;26.33;56.08;100656.56;5094459;28;20020;-47
2023/07/29 10:51:27;;;;;;;1.38;1.27;;;;;;;26.31;58.36;100651.38;5093942;28;20039;-47
2023/07/29 10:53:57;;;;;;;1.58;1.13;;;;;;;25.98;57.40;100658.00;5091139;28;20141;-47
2023/07/29 10:56:36;;;;;;;1.92;1.70;;;;;;;25.94;57.70;100656.72;5092185;28;20435;-47
2023/07/29 10:59:17;;;;;;;1.20;1.10;;;;;;;25.92;59.91;100658.03;5093775;28;20489;-47
2023/07/29 11:01:50;;;;;;;1.25;1.20;;;;;;;25.75;59.62;100652.31;5090965;28;20050;-47
2023/07/29 11:04:30;;;;;;;1.52;1.40;;;;;;;25.72;57.98;100653.59;5098212;28;20120;-47
2023/07/29 11:07:07;;;;;;;1.95;1.20;;;;;;;25.51;59.81;100656.69;5095522;28;20119;-47
2023/07/29 11:09:48;;;;;;;1.13;1.10;;;;;;;25.49;60.49;100667.78;5088790;28;20032;-47
2023/07/29 11:12:45;;;;;;;1.85;1.50;;;;;;;25.37;60.37;100664.94;5092439;28;20073;-49
2023/07/29 11:15:14;;;;;;;2.05;1.75;;;;;;;25.10;57.95;100667.81;5087493;28;20058;-47
2023/07/29 11:17:47;;;;;;;4.03;1.80;;;;;;;24.89;61.23;100662.69;5093734;28;20054;-46
2023/07/29 11:20:14;;;;;;;3.15;1.60;;;;;;;24.66;61.33;100658.59;5094096;28;20046;-46